sensor_id;sensor_type;location;lat;lon;timestamp;pressure;altitude;pressure_sealevel;temperature;humidity
55068;BME280;40965;52.368;9.712;2024-02-04T00:00:02;101296.13;;;8.14;100.00
55068;BME280;40965;52.368;9.712;2024-02-04T00:02:30;101296.88;;;8.07;100.00
55068;BME280;40965;52.368;9.712;2024-02-04T00:04:59;101291.63;;;8.01;100.00
55068;BME280;40965;52.368;9.712;2024-02-04T00:07:25;101299.38;;;7.98;100.00
55068;BME280;40965;52.368;9.712;2024-02-04T00:09:53;101302.00;;;7.98;100.00
55068;BME280;40965;52.368;9.712;2024-02-04T00:12:23;101295.94;;;8.00;100.00
55068;BME280;40965;52.368;9.712;2024-02-04T00:14:49;101286.44;;;8.05;100.00
55068;BME280;40965;52.368;9.712;2024-02-04T00:17:16;101276.00;;;8.05;100.00
55068;BME280;40965;52.368;9.712;2024-02-04T00:19:43;101275.13;;;8.02;100.00
55068;BME280;40965;52.368;9.712;2024-02-04T00:22:12;101275.06;;;7.95;100.00
55068;BME280;40965;52.368;9.712;2024-02-04T00:24:42;101281.09;;;7.93;100.00
55068;BME280;40965;52.368;9.712;2024-02-04T00:27:08;101287.16;;;7.89;100.00
55068;BME280;40965;52.368;9.712;2024-02-04T00:29:35;101278.34;;;7.82;100.00
55068;BME280;40965;52.368;9.712;2024-02-04T00:32:02;101277.47;;;7.78;100.00
55068;BME280;40965;52.368;9.712;2024-02-04T00:34:28;101276.53;;;7.73;100.00
55068;BME280;40965;52.368;9.712;2024-02-04T00:36:55;101274.75;;;7.69;100.00
55068;BME280;40965;52.368;9.712;2024-02-04T00:39:21;101266.84;;;7.65;100.00
55068;BME280;40965;52.368;9.712;2024-02-04T00:41:48;101254.66;;;7.64;100.00
55068;BME280;40965;52.368;9.712;2024-02-04T00:44:15;101257.25;;;7.60;100.00
55068;BME280;40965;52.368;9.712;2024-02-04T00:46:41;101249.44;;;7.62;100.00
55068;BME280;40965;52.368;9.712;2024-02-04T00:49:08;101250.34;;;7.64;100.00
55068;BME280;40965;52.368;9.712;2024-02-04T00:51:34;101250.38;;;7.67;100.00
55068;BME280;40965;52.368;9.712;2024-02-04T00:54:01;101244.25;;;7.64;100.00
55068;BME280;40965;52.368;9.712;2024-02-04T00:56:28;101242.44;;;7.58;100.00
55068;BME280;40965;52.368;9.712;2024-02-04T00:58:54;101252.84;;;7.55;100.00
55068;BME280;40965;52.368;9.712;2024-02-04T01:01:21;101245.78;;;7.49;100.00
55068;BME280;40965;52.368;9.712;2024-02-04T01:03:47;101242.31;;;7.49;100.00
55068;BME280;40965;52.368;9.712;2024-02-04T01:06:15;101245.78;;;7.49;100.00
55068;BME280;40965;52.368;9.712;2024-02-04T01:08:41;101235.34;;;7.44;100.00
55068;BME280;40965;52.368;9.712;2024-02-04T01:11:08;101242.25;;;7.44;100.00
55068;BME280;40965;52.368;9.712;2024-02-04T01:13:34;101241.41;;;7.45;100.00
55068;BME280;40965;52.368;9.712;2024-02-04T01:16:01;101239.72;;;7.47;100.00
55068;BME280;40965;52.368;9.712;2024-02-04T01:18:28;101238.81;;;7.47;100.00
55068;BME280;40965;52.368;9.712;2024-02-04T01:20:56;101230.13;;;7.44;100.00
55068;BME280;40965;52.368;9.712;2024-02-04T01:23:23;101242.16;;;7.38;100.00
55068;BME280;40965;52.368;9.712;2024-02-04T01:25:49;101243.03;;;7.37;100.00
55068;BME280;40965;52.368;9.712;2024-02-04T01:28:15;101254.31;;;7.37;100.00
55068;BME280;40965;52.368;9.712;2024-02-04T01:30:45;101257.84;;;7.39;100.00
55068;BME280;40965;52.368;9.712;2024-02-04T01:33:11;101260.50;;;7.44;100.00
55068;BME280;40965;52.368;9.712;2024-02-04T01:35:40;101262.38;;;7.56;100.00
55068;BME280;40965;52.368;9.712;2024-02-04T01:38:06;101261.56;;;7.60;100.00
55068;BME280;40965;52.368;9.712;2024-02-04T01:40:35;101253.81;;;7.63;100.00
55068;BME280;40965;52.368;9.712;2024-02-04T01:43:02;101256.44;;;7.66;100.00
55068;BME280;40965;52.368;9.712;2024-02-04T01:45:29;101246.94;;;7.70;100.00
55068;BME280;40965;52.368;9.712;2024-02-04T01:47:55;101246.97;;;7.73;100.00
55068;BME280;40965;52.368;9.712;2024-02-04T01:50:23;101242.66;;;7.75;100.00
55068;BME280;40965;52.368;9.712;2024-02-04T01:52:50;101252.22;;;7.76;100.00
55068;BME280;40965;52.368;9.712;2024-02-04T01:55:21;101253.94;;;7.74;100.00
55068;BME280;40965;52.368;9.712;2024-02-04T01:57:48;101241.81;;;7.77;100.00
55068;BME280;40965;52.368;9.712;2024-02-04T02:00:15;101239.22;;;7.81;100.00
55068;BME280;40965;52.368;9.712;2024-02-04T02:02:46;101237.56;;;7.86;100.00
55068;BME280;40965;52.368;9.712;2024-02-04T02:05:13;101237.63;;;7.90;100.00
55068;BME280;40965;52.368;9.712;2024-02-04T02:07:40;101250.69;;;7.95;100.00
55068;BME280;40965;52.368;9.712;2024-02-04T02:10:08;101235.97;;;7.99;100.00
55068;BME280;40965;52.368;9.712;2024-02-04T02:12:40;101232.53;;;8.03;100.00
55068;BME280;40965;52.368;9.712;2024-02-04T02:15:25;101223.00;;;8.06;100.00
55068;BME280;40965;52.368;9.712;2024-02-04T02:18:04;101212.59;;;8.08;100.00
55068;BME280;40965;52.368;9.712;2024-02-04T02:20:41;101201.31;;;8.07;100.00
55068;BME280;40965;52.368;9.712;2024-02-04T02:23:43;101199.56;;;8.09;100.00
55068;BME280;40965;52.368;9.712;2024-02-04T02:26:31;101202.16;;;8.06;100.00
55068;BME280;40965;52.368;9.712;2024-02-04T02:28:58;101205.59;;;8.01;100.00
55068;BME280;40965;52.368;9.712;2024-02-04T02:31:25;101201.16;;;7.95;100.00
55068;BME280;40965;52.368;9.712;2024-02-04T02:33:52;101199.47;;;8.00;100.00
55068;BME280;40965;52.368;9.712;2024-02-04T02:36:23;101198.72;;;8.09;100.00
55068;BME280;40965;52.368;9.712;2024-02-04T02:39:00;101197.03;;;8.16;100.00
55068;BME280;40965;52.368;9.712;2024-02-04T02:41:36;101198.81;;;8.20;100.00
55068;BME280;40965;52.368;9.712;2024-02-04T02:44:05;101200.53;;;8.16;100.00
55068;BME280;40965;52.368;9.712;2024-02-04T02:46:34;101196.16;;;8.14;100.00
55068;BME280;40965;52.368;9.712;2024-02-04T02:49:02;101191.75;;;8.08;100.00
55068;BME280;40965;52.368;9.712;2024-02-04T02:51:29;101186.44;;;8.00;100.00
55068;BME280;40965;52.368;9.712;2024-02-04T02:53:56;101189.88;;;7.96;100.00
55068;BME280;40965;52.368;9.712;2024-02-04T02:56:22;101182.91;;;7.95;100.00
55068;BME280;40965;52.368;9.712;2024-02-04T02:58:49;101176.00;;;7.97;100.00
55068;BME280;40965;52.368;9.712;2024-02-04T03:01:18;101180.41;;;8.04;100.00
55068;BME280;40965;52.368;9.712;2024-02-04T03:03:47;101178.69;;;8.05;100.00
55068;BME280;40965;52.368;9.712;2024-02-04T03:06:14;101176.94;;;8.04;100.00
55068;BME280;40965;52.368;9.712;2024-02-04T03:08:40;101155.13;;;7.97;100.00
55068;BME280;40965;52.368;9.712;2024-02-04T03:11:07;101171.56;;;7.90;100.00
55068;BME280;40965;52.368;9.712;2024-02-04T03:13:33;101168.88;;;7.82;100.00
55068;BME280;40965;52.368;9.712;2024-02-04T03:16:00;101167.97;;;7.77;100.00
55068;BME280;40965;52.368;9.712;2024-02-04T03:18:27;101170.53;;;7.74;100.00
55068;BME280;40965;52.368;9.712;2024-02-04T03:20:58;101168.75;;;7.68;100.00
55068;BME280;40965;52.368;9.712;2024-02-04T03:23:25;101172.19;;;7.67;100.00
55068;BME280;40965;52.368;9.712;2024-02-04T03:25:54;101170.44;;;7.68;100.00
55068;BME280;40965;52.368;9.712;2024-02-04T03:28:21;101168.69;;;7.65;100.00
55068;BME280;40965;52.368;9.712;2024-02-04T03:30:47;101165.25;;;7.68;100.00
55068;BME280;40965;52.368;9.712;2024-02-04T03:33:14;101156.59;;;7.70;100.00
55068;BME280;40965;52.368;9.712;2024-02-04T03:35:41;101162.72;;;7.75;100.00
55068;BME280;40965;52.368;9.712;2024-02-04T03:38:07;101166.25;;;7.79;100.00
55068;BME280;40965;52.368;9.712;2024-02-04T03:40:34;101166.31;;;7.87;100.00
55068;BME280;40965;52.368;9.712;2024-02-04T03:43:00;101168.09;;;7.91;100.00
55068;BME280;40965;52.368;9.712;2024-02-04T03:45:27;101169.00;;;7.93;100.00
55068;BME280;40965;52.368;9.712;2024-02-04T03:47:54;101164.66;;;7.92;100.00
55068;BME280;40965;52.368;9.712;2024-02-04T03:50:21;101169.88;;;7.93;100.00
55068;BME280;40965;52.368;9.712;2024-02-04T03:52:47;101165.56;;;7.95;100.00
55068;BME280;40965;52.368;9.712;2024-02-04T03:55:14;101163.81;;;7.96;100.00
55068;BME280;40965;52.368;9.712;2024-02-04T03:57:40;101162.09;;;7.97;100.00
55068;BME280;40965;52.368;9.712;2024-02-04T04:00:07;101153.28;;;7.87;100.00
55068;BME280;40965;52.368;9.712;2024-02-04T04:02:37;101152.34;;;7.77;100.00
55068;BME280;40965;52.368;9.712;2024-02-04T04:05:04;101163.56;;;7.71;100.00
55068;BME280;40965;52.368;9.712;2024-02-04T04:07:31;101161.78;;;7.70;100.00
55068;BME280;40965;52.368;9.712;2024-02-04T04:09:58;101153.09;;;7.68;100.00
55068;BME280;40965;52.368;9.712;2024-02-04T04:12:24;101150.41;;;7.60;100.00
55068;BME280;40965;52.368;9.712;2024-02-04T04:14:54;101139.94;;;7.56;100.00
55068;BME280;40965;52.368;9.712;2024-02-04T04:17:21;101149.47;;;7.52;100.00
55068;BME280;40965;52.368;9.712;2024-02-04T04:19:47;101147.66;;;7.48;100.00
55068;BME280;40965;52.368;9.712;2024-02-04T04:22:14;101147.59;;;7.42;100.00
55068;BME280;40965;52.368;9.712;2024-02-04T04:24:40;101144.09;;;7.38;100.00
55068;BME280;40965;52.368;9.712;2024-02-04T04:27:07;101153.66;;;7.39;100.00
55068;BME280;40965;52.368;9.712;2024-02-04T04:29:33;101152.81;;;7.42;100.00
55068;BME280;40965;52.368;9.712;2024-02-04T04:32:00;101153.69;;;7.44;100.00
55068;BME280;40965;52.368;9.712;2024-02-04T04:34:26;101153.78;;;7.52;100.00
55068;BME280;40965;52.368;9.712;2024-02-04T04:36:52;101151.19;;;7.53;100.00
55068;BME280;40965;52.368;9.712;2024-02-04T04:39:22;101147.78;;;7.59;100.00
55068;BME280;40965;52.368;9.712;2024-02-04T04:41:51;101155.59;;;7.57;100.00
55068;BME280;40965;52.368;9.712;2024-02-04T04:44:18;101150.34;;;7.54;100.00
55068;BME280;40965;52.368;9.712;2024-02-04T04:46:45;101145.94;;;7.50;100.00
55068;BME280;40965;52.368;9.712;2024-02-04T04:49:17;101165.97;;;7.56;100.00
55068;BME280;40965;52.368;9.712;2024-02-04T04:51:46;101186.88;;;7.60;100.00
55068;BME280;40965;52.368;9.712;2024-02-04T04:54:15;101177.38;;;7.64;100.00
55068;BME280;40965;52.368;9.712;2024-02-04T04:56:42;101163.44;;;7.60;100.00
55068;BME280;40965;52.368;9.712;2024-02-04T04:59:09;101153.84;;;7.55;100.00
55068;BME280;40965;52.368;9.712;2024-02-04T05:01:35;101163.28;;;7.48;100.00
55068;BME280;40965;52.368;9.712;2024-02-04T05:04:02;101165.00;;;7.46;100.00
55068;BME280;40965;52.368;9.712;2024-02-04T05:06:29;101157.22;;;7.48;100.00
55068;BME280;40965;52.368;9.712;2024-02-04T05:08:57;101159.91;;;7.57;100.00
55068;BME280;40965;52.368;9.712;2024-02-04T05:11:27;101150.44;;;7.62;100.00
55068;BME280;40965;52.368;9.712;2024-02-04T05:13:54;101140.03;;;7.65;100.00
55068;BME280;40965;52.368;9.712;2024-02-04T05:16:20;101147.03;;;7.69;100.00
55068;BME280;40965;52.368;9.712;2024-02-04T05:18:49;101158.31;;;7.70;100.00
55068;BME280;40965;52.368;9.712;2024-02-04T05:21:15;101152.22;;;7.68;100.00
55068;BME280;40965;52.368;9.712;2024-02-04T05:23:42;101168.75;;;7.68;100.00
55068;BME280;40965;52.368;9.712;2024-02-04T05:26:08;101170.44;;;7.68;100.00
55068;BME280;40965;52.368;9.712;2024-02-04T05:28:35;101159.97;;;7.61;100.00
55068;BME280;40965;52.368;9.712;2024-02-04T05:31:01;101143.38;;;7.53;100.00
55068;BME280;40965;52.368;9.712;2024-02-04T05:33:31;101145.09;;;7.51;100.00
55068;BME280;40965;52.368;9.712;2024-02-04T05:35:58;101141.66;;;7.54;100.00
55068;BME280;40965;52.368;9.712;2024-02-04T05:38:24;101139.94;;;7.56;100.00
55068;BME280;40965;52.368;9.712;2024-02-04T05:40:51;101124.34;;;7.59;100.00
55068;BME280;40965;52.368;9.712;2024-02-04T05:43:17;101125.22;;;7.59;100.00
55068;BME280;40965;52.368;9.712;2024-02-04T05:45:44;101116.47;;;7.56;100.00
55068;BME280;40965;52.368;9.712;2024-02-04T05:48:11;101119.13;;;7.57;100.00
55068;BME280;40965;52.368;9.712;2024-02-04T05:50:38;101115.69;;;7.63;100.00
55068;BME280;40965;52.368;9.712;2024-02-04T05:53:05;101120.94;;;7.68;100.00
55068;BME280;40965;52.368;9.712;2024-02-04T05:55:35;101125.38;;;7.73;100.00
55068;BME280;40965;52.368;9.712;2024-02-04T05:58:01;101121.06;;;7.78;100.00
55068;BME280;40965;52.368;9.712;2024-02-04T06:00:28;101123.66;;;7.77;100.00
55068;BME280;40965;52.368;9.712;2024-02-04T06:02:55;101114.09;;;7.74;100.00
55068;BME280;40965;52.368;9.712;2024-02-04T06:05:22;101113.19;;;7.72;100.00
55068;BME280;40965;52.368;9.712;2024-02-04T06:07:49;101118.38;;;7.71;100.00
55068;BME280;40965;52.368;9.712;2024-02-04T06:10:16;101118.38;;;7.69;100.00
55068;BME280;40965;52.368;9.712;2024-02-04T06:12:46;101118.34;;;7.68;100.00
55068;BME280;40965;52.368;9.712;2024-02-04T06:15:16;101112.25;;;7.64;100.00
55068;BME280;40965;52.368;9.712;2024-02-04T06:17:43;101113.09;;;7.63;100.00
55068;BME280;40965;52.368;9.712;2024-02-04T06:20:12;101100.91;;;7.62;100.00
55068;BME280;40965;52.368;9.712;2024-02-04T06:22:39;101106.97;;;7.61;100.00
55068;BME280;40965;52.368;9.712;2024-02-04T06:25:06;101095.72;;;7.62;100.00
55068;BME280;40965;52.368;9.712;2024-02-04T06:27:36;101102.66;;;7.63;100.00
55068;BME280;40965;52.368;9.712;2024-02-04T06:30:03;101097.47;;;7.65;100.00
55068;BME280;40965;52.368;9.712;2024-02-04T06:32:32;101100.06;;;7.63;100.00
55068;BME280;40965;52.368;9.712;2024-02-04T06:34:59;101099.16;;;7.61;100.00
55068;BME280;40965;52.368;9.712;2024-02-04T06:37:26;101096.56;;;7.61;100.00
55068;BME280;40965;52.368;9.712;2024-02-04T06:39:52;101073.09;;;7.58;100.00
55068;BME280;40965;52.368;9.712;2024-02-04T06:42:19;101074.78;;;7.54;100.00
55068;BME280;40965;52.368;9.712;2024-02-04T06:44:45;101077.44;;;7.57;100.00
55068;BME280;40965;52.368;9.712;2024-02-04T06:47:12;101067.03;;;7.59;100.00
55068;BME280;40965;52.368;9.712;2024-02-04T06:49:44;101087.00;;;7.60;100.00
55068;BME280;40965;52.368;9.712;2024-02-04T06:52:11;101082.66;;;7.60;100.00
55068;BME280;40965;52.368;9.712;2024-02-04T06:54:38;101089.59;;;7.60;100.00
55068;BME280;40965;52.368;9.712;2024-02-04T06:57:04;101085.25;;;7.57;100.00
55068;BME280;40965;52.368;9.712;2024-02-04T06:59:31;101061.75;;;7.56;100.00
55068;BME280;40965;52.368;9.712;2024-02-04T07:01:57;101072.19;;;7.54;100.00
55068;BME280;40965;52.368;9.712;2024-02-04T07:04:24;101076.53;;;7.54;100.00
55068;BME280;40965;52.368;9.712;2024-02-04T07:06:50;101073.09;;;7.56;100.00
55068;BME280;40965;52.368;9.712;2024-02-04T07:09:17;101063.53;;;7.58;100.00
55068;BME280;40965;52.368;9.712;2024-02-04T07:11:45;101058.31;;;7.60;100.00
55068;BME280;40965;52.368;9.712;2024-02-04T07:14:12;101054.88;;;7.61;100.00
55068;BME280;40965;52.368;9.712;2024-02-04T07:16:39;101044.44;;;7.59;100.00
55068;BME280;40965;52.368;9.712;2024-02-04T07:19:06;101046.19;;;7.59;100.00
55068;BME280;40965;52.368;9.712;2024-02-04T07:21:32;101053.09;;;7.55;100.00
55068;BME280;40965;52.368;9.712;2024-02-04T07:24:01;101059.19;;;7.57;100.00
55068;BME280;40965;52.368;9.712;2024-02-04T07:26:27;101051.34;;;7.54;100.00
55068;BME280;40965;52.368;9.712;2024-02-04T07:28:54;101053.09;;;7.57;100.00
55068;BME280;40965;52.368;9.712;2024-02-04T07:31:21;101048.81;;;7.60;100.00
55068;BME280;40965;52.368;9.712;2024-02-04T07:33:51;101054.91;;;7.64;100.00
55068;BME280;40965;52.368;9.712;2024-02-04T07:36:17;101058.44;;;7.71;100.00
55068;BME280;40965;52.368;9.712;2024-02-04T07:38:44;101062.81;;;7.75;100.00
55068;BME280;40965;52.368;9.712;2024-02-04T07:41:13;101057.66;;;7.80;100.00
55068;BME280;40965;52.368;9.712;2024-02-04T07:43:41;101065.50;;;7.84;100.00
55068;BME280;40965;52.368;9.712;2024-02-04T07:46:09;101051.63;;;7.87;100.00
55068;BME280;40965;52.368;9.712;2024-02-04T07:48:36;101038.66;;;7.93;100.00
55068;BME280;40965;52.368;9.712;2024-02-04T07:51:06;101037.81;;;7.97;100.00
55068;BME280;40965;52.368;9.712;2024-02-04T07:53:35;101043.09;;;8.03;100.00
55068;BME280;40965;52.368;9.712;2024-02-04T07:56:02;101043.97;;;8.05;100.00
55068;BME280;40965;52.368;9.712;2024-02-04T07:58:32;101035.28;;;8.09;100.00
55068;BME280;40965;52.368;9.712;2024-02-04T08:00:59;101035.34;;;8.11;100.00
55068;BME280;40965;52.368;9.712;2024-02-04T08:03:25;101035.34;;;8.13;100.00
55068;BME280;40965;52.368;9.712;2024-02-04T08:05:52;101039.69;;;8.14;100.00
55068;BME280;40965;52.368;9.712;2024-02-04T08:08:20;101038.84;;;8.16;100.00
55068;BME280;40965;52.368;9.712;2024-02-04T08:10:46;101029.31;;;8.21;100.00
55068;BME280;40965;52.368;9.712;2024-02-04T08:13:13;101044.13;;;8.24;100.00
55068;BME280;40965;52.368;9.712;2024-02-04T08:15:40;101038.84;;;8.21;100.00
55068;BME280;40965;52.368;9.712;2024-02-04T08:18:06;101052.81;;;8.26;100.00
55068;BME280;40965;52.368;9.712;2024-02-04T08:20:33;101045.84;;;8.26;100.00
55068;BME280;40965;52.368;9.712;2024-02-04T08:22:59;101044.13;;;8.32;100.00
55068;BME280;40965;52.368;9.712;2024-02-04T08:25:26;101036.34;;;8.33;100.00
55068;BME280;40965;52.368;9.712;2024-02-04T08:27:52;101039.81;;;8.34;100.00
55068;BME280;40965;52.368;9.712;2024-02-04T08:30:19;101040.72;;;8.36;100.00
55068;BME280;40965;52.368;9.712;2024-02-04T08:32:46;101040.72;;;8.36;100.00
55068;BME280;40965;52.368;9.712;2024-02-04T08:35:13;101040.66;;;8.31;100.00
55068;BME280;40965;52.368;9.712;2024-02-04T08:37:39;101039.81;;;8.37;100.00
55068;BME280;40965;52.368;9.712;2024-02-04T08:40:06;101038.13;;;8.39;100.00
55068;BME280;40965;52.368;9.712;2024-02-04T08:42:33;101041.56;;;8.38;100.00
55068;BME280;40965;52.368;9.712;2024-02-04T08:45:00;101050.31;;;8.40;100.00
55068;BME280;40965;52.368;9.712;2024-02-04T08:47:29;101047.69;;;8.41;100.00
55068;BME280;40965;52.368;9.712;2024-02-04T08:49:56;101057.38;;;8.52;100.00
55068;BME280;40965;52.368;9.712;2024-02-04T08:52:25;101040.72;;;8.37;100.00
55068;BME280;40965;52.368;9.712;2024-02-04T08:54:51;101053.75;;;8.39;100.00
55068;BME280;40965;52.368;9.712;2024-02-04T08:57:18;101058.09;;;8.37;100.00
55068;BME280;40965;52.368;9.712;2024-02-04T08:59:44;101060.75;;;8.41;100.00
55068;BME280;40965;52.368;9.712;2024-02-04T09:02:11;101057.28;;;8.41;100.00
55068;BME280;40965;52.368;9.712;2024-02-04T09:04:38;101055.50;;;8.38;100.00
55068;BME280;40965;52.368;9.712;2024-02-04T09:07:07;101058.09;;;8.37;100.00
55068;BME280;40965;52.368;9.712;2024-02-04T09:09:33;101062.44;;;8.39;100.00
55068;BME280;40965;52.368;9.712;2024-02-04T09:12:00;101059.81;;;8.33;100.00
55068;BME280;40965;52.368;9.712;2024-02-04T09:14:26;101062.41;;;8.32;100.00
55068;BME280;40965;52.368;9.712;2024-02-04T09:16:53;101069.38;;;8.31;100.00
55068;BME280;40965;52.368;9.712;2024-02-04T09:19:19;101058.06;;;8.32;100.00
55068;BME280;40965;52.368;9.712;2024-02-04T09:21:46;101059.78;;;8.32;100.00
55068;BME280;40965;52.368;9.712;2024-02-04T09:24:13;101049.34;;;8.28;100.00
55068;BME280;40965;52.368;9.712;2024-02-04T09:26:42;101052.81;;;8.29;100.00
55068;BME280;40965;52.368;9.712;2024-02-04T09:29:09;101049.34;;;8.30;100.00
55068;BME280;40965;52.368;9.712;2024-02-04T09:31:36;101045.91;;;8.33;100.00
55068;BME280;40965;52.368;9.712;2024-02-04T09:34:02;101041.53;;;8.30;100.00
55068;BME280;40965;52.368;9.712;2024-02-04T09:36:29;101051.09;;;8.30;100.00
55068;BME280;40965;52.368;9.712;2024-02-04T09:38:56;101052.88;;;8.34;100.00
55068;BME280;40965;52.368;9.712;2024-02-04T09:41:23;101047.66;;;8.37;100.00
55068;BME280;40965;52.368;9.712;2024-02-04T09:43:51;101044.19;;;8.38;100.00
55068;BME280;40965;52.368;9.712;2024-02-04T09:46:18;101039.81;;;8.32;100.00
55068;BME280;40965;52.368;9.712;2024-02-04T09:48:45;101057.22;;;8.33;100.00
55068;BME280;40965;52.368;9.712;2024-02-04T09:51:12;101041.56;;;8.33;100.00
55068;BME280;40965;52.368;9.712;2024-02-04T09:53:43;101050.25;;;8.35;100.00
55068;BME280;40965;52.368;9.712;2024-02-04T09:56:11;101047.59;;;8.29;100.00
55068;BME280;40965;52.368;9.712;2024-02-04T09:58:38;101046.75;;;8.28;100.00
55068;BME280;40965;52.368;9.712;2024-02-04T10:01:05;101050.25;;;8.35;100.00
55068;BME280;40965;52.368;9.712;2024-02-04T10:03:33;101053.72;;;8.33;100.00
55068;BME280;40965;52.368;9.712;2024-02-04T10:06:03;101054.63;;;8.38;100.00
55068;BME280;40965;52.368;9.712;2024-02-04T10:08:30;101065.06;;;8.39;100.00
55068;BME280;40965;52.368;9.712;2024-02-04T10:10:56;101072.03;;;8.36;100.00
55068;BME280;40965;52.368;9.712;2024-02-04T10:13:24;101064.16;;;8.30;100.00
55068;BME280;40965;52.368;9.712;2024-02-04T10:15:51;101077.25;;;8.39;100.00
55068;BME280;40965;52.368;9.712;2024-02-04T10:18:21;101079.00;;;8.38;100.00
55068;BME280;40965;52.368;9.712;2024-02-04T10:20:51;101067.66;;;8.33;100.00
55068;BME280;40965;52.368;9.712;2024-02-04T10:23:17;101060.72;;;8.38;100.00
55068;BME280;40965;52.368;9.712;2024-02-04T10:25:44;101056.38;;;8.36;100.00
55068;BME280;40965;52.368;9.712;2024-02-04T10:28:11;101062.44;;;8.39;100.00
55068;BME280;40965;52.368;9.712;2024-02-04T10:30:45;101067.75;;;8.46;100.00
55068;BME280;40965;52.368;9.712;2024-02-04T10:33:15;101060.81;;;8.51;100.00
55068;BME280;40965;52.368;9.712;2024-02-04T10:35:45;101055.63;;;8.54;100.00
55068;BME280;40965;52.368;9.712;2024-02-04T10:38:12;101051.25;;;8.48;100.00
55068;BME280;40965;52.368;9.712;2024-02-04T10:40:39;101049.44;;;8.42;100.00
55068;BME280;40965;52.368;9.712;2024-02-04T10:43:07;101053.00;;;8.46;100.00
55068;BME280;40965;52.368;9.712;2024-02-04T10:45:38;101039.97;;;8.52;100.00
55068;BME280;40965;52.368;9.712;2024-02-04T10:48:08;101023.47;;;8.59;100.00
55068;BME280;40965;52.368;9.712;2024-02-04T10:50:35;101030.50;;;8.73;100.00
55068;BME280;40965;52.368;9.712;2024-02-04T10:53:10;101023.53;;;8.67;99.54
55068;BME280;40965;52.368;9.712;2024-02-04T10:55:41;101020.88;;;8.61;99.99
55068;BME280;40965;52.368;9.712;2024-02-04T10:58:12;101032.22;;;8.65;100.00
55068;BME280;40965;52.368;9.712;2024-02-04T11:00:40;101016.56;;;8.68;100.00
55068;BME280;40965;52.368;9.712;2024-02-04T11:03:07;101022.66;;;8.76;100.00
55068;BME280;40965;52.368;9.712;2024-02-04T11:05:36;101020.16;;;8.98;100.00
55068;BME280;40965;52.368;9.712;2024-02-04T11:08:07;101025.47;;;9.22;98.42
55068;BME280;40965;52.368;9.712;2024-02-04T11:10:37;101020.25;;;9.29;96.87
55068;BME280;40965;52.368;9.712;2024-02-04T11:13:09;101012.44;;;9.36;96.13
55068;BME280;40965;52.368;9.712;2024-02-04T11:15:39;101010.69;;;9.32;95.41
55068;BME280;40965;52.368;9.712;2024-02-04T11:18:45;100987.16;;;9.27;96.13
55068;BME280;40965;52.368;9.712;2024-02-04T11:24:50;100991.47;;;9.16;96.50
55068;BME280;40965;52.368;9.712;2024-02-04T11:27:26;101000.19;;;9.18;95.15
55068;BME280;40965;52.368;9.712;2024-02-04T11:29:54;101002.81;;;9.21;93.83
55068;BME280;40965;52.368;9.712;2024-02-04T11:32:24;101001.97;;;9.32;90.77
55068;BME280;40965;52.368;9.712;2024-02-04T11:34:53;101004.59;;;9.38;88.89
55068;BME280;40965;52.368;9.712;2024-02-04T11:37:20;100990.66;;;9.48;89.14
55068;BME280;40965;52.368;9.712;2024-02-04T11:39:53;100999.41;;;9.52;88.79
55068;BME280;40965;52.368;9.712;2024-02-04T11:42:23;100988.91;;;9.42;87.03
55068;BME280;40965;52.368;9.712;2024-02-04T11:44:50;100985.44;;;9.45;87.91
55068;BME280;40965;52.368;9.712;2024-02-04T11:47:25;100986.31;;;9.47;87.21
55068;BME280;40965;52.368;9.712;2024-02-04T11:49:57;100995.03;;;9.54;87.76
55068;BME280;40965;52.368;9.712;2024-02-04T11:52:28;100978.47;;;9.66;86.79
55068;BME280;40965;52.368;9.712;2024-02-04T11:54:56;100975.00;;;9.60;84.25
55068;BME280;40965;52.368;9.712;2024-02-04T11:57:23;100966.28;;;9.46;82.08
55068;BME280;40965;52.368;9.712;2024-02-04T11:59:50;100977.59;;;9.48;81.51
55068;BME280;40965;52.368;9.712;2024-02-04T12:02:19;100973.25;;;9.49;81.28
55068;BME280;40965;52.368;9.712;2024-02-04T12:04:48;100984.56;;;9.46;80.88
55068;BME280;40965;52.368;9.712;2024-02-04T12:07:15;100979.34;;;9.54;80.56
55068;BME280;40965;52.368;9.712;2024-02-04T12:09:51;100992.41;;;9.55;80.15
55068;BME280;40965;52.368;9.712;2024-02-04T12:12:19;100995.91;;;9.54;80.63
55068;BME280;40965;52.368;9.712;2024-02-04T12:14:47;100989.81;;;9.41;81.15
55068;BME280;40965;52.368;9.712;2024-02-04T12:17:31;100987.16;;;9.37;82.09
55068;BME280;40965;52.368;9.712;2024-02-04T12:20:00;100990.66;;;9.30;82.32
55068;BME280;40965;52.368;9.712;2024-02-04T12:22:30;100975.84;;;9.29;82.49
55068;BME280;40965;52.368;9.712;2024-02-04T12:25:02;100987.16;;;9.31;82.66
55068;BME280;40965;52.368;9.712;2024-02-04T12:27:29;100974.97;;;9.33;83.17
55068;BME280;40965;52.368;9.712;2024-02-04T12:29:56;100972.38;;;9.30;82.81
55068;BME280;40965;52.368;9.712;2024-02-04T12:32:23;100974.94;;;9.20;82.04
55068;BME280;40965;52.368;9.712;2024-02-04T12:34:52;100988.03;;;9.23;82.21
55068;BME280;40965;52.368;9.712;2024-02-04T12:37:26;100954.94;;;9.24;82.85
55068;BME280;40965;52.368;9.712;2024-02-04T12:39:57;100961.88;;;9.16;82.28
55068;BME280;40965;52.368;9.712;2024-02-04T12:42:25;100964.47;;;9.09;82.80
55068;BME280;40965;52.368;9.712;2024-02-04T12:44:56;100968.84;;;9.09;82.82
55068;BME280;40965;52.368;9.712;2024-02-04T12:47:24;100974.94;;;9.08;83.23
55068;BME280;40965;52.368;9.712;2024-02-04T12:49:58;100969.72;;;9.06;83.84
55068;BME280;40965;52.368;9.712;2024-02-04T12:52:25;100974.94;;;9.05;83.98
55068;BME280;40965;52.368;9.712;2024-02-04T12:54:52;100961.00;;;9.03;84.77
55068;BME280;40965;52.368;9.712;2024-02-04T12:57:23;100960.13;;;9.02;84.92
55068;BME280;40965;52.368;9.712;2024-02-04T12:59:50;100962.72;;;8.96;85.00